sensor_id;sensor_type;location;lat;lon;timestamp;temperature;humidity
27978;DHT22;15314;49.248;6.968;2024-02-15T00:00:44;12.80;99.90
27978;DHT22;15314;49.248;6.968;2024-02-15T00:02:03;12.70;99.90
27978;DHT22;15314;49.248;6.968;2024-02-15T00:03:23;12.80;99.90
27978;DHT22;15314;49.248;6.968;2024-02-15T00:04:42;12.80;99.90
27978;DHT22;15314;49.248;6.968;2024-02-15T00:06:01;12.90;99.90
27978;DHT22;15314;49.248;6.968;2024-02-15T00:07:21;12.90;99.90
27978;DHT22;15314;49.248;6.968;2024-02-15T00:08:41;13.00;99.90
27978;DHT22;15314;49.248;6.968;2024-02-15T00:10:00;12.90;99.90
27978;DHT22;15314;49.248;6.968;2024-02-15T00:11:20;12.90;99.90
27978;DHT22;15314;49.248;6.968;2024-02-15T00:12:39;12.90;99.90
27978;DHT22;15314;49.248;6.968;2024-02-15T00:13:58;13.00;99.90
27978;DHT22;15314;49.248;6.968;2024-02-15T00:15:17;13.00;99.90
27978;DHT22;15314;49.248;6.968;2024-02-15T00:16:38;12.90;99.90
27978;DHT22;15314;49.248;6.968;2024-02-15T00:17:57;12.90;99.90
27978;DHT22;15314;49.248;6.968;2024-02-15T00:19:16;12.90;99.90
27978;DHT22;15314;49.248;6.968;2024-02-15T00:20:36;12.90;99.90
27978;DHT22;15314;49.248;6.968;2024-02-15T00:21:55;12.90;99.90
27978;DHT22;15314;49.248;6.968;2024-02-15T00:23:15;12.80;99.90
27978;DHT22;15314;49.248;6.968;2024-02-15T00:24:38;12.80;99.90
27978;DHT22;15314;49.248;6.968;2024-02-15T00:25:58;12.90;99.90
27978;DHT22;15314;49.248;6.968;2024-02-15T00:27:17;12.90;99.90
27978;DHT22;15314;49.248;6.968;2024-02-15T00:28:36;12.90;99.90
27978;DHT22;15314;49.248;6.968;2024-02-15T00:29:55;12.90;99.90
27978;DHT22;15314;49.248;6.968;2024-02-15T00:31:14;13.00;99.90
27978;DHT22;15314;49.248;6.968;2024-02-15T00:32:33;12.90;99.90
27978;DHT22;15314;49.248;6.968;2024-02-15T00:33:53;12.80;99.90
27978;DHT22;15314;49.248;6.968;2024-02-15T00:35:12;12.90;99.90
27978;DHT22;15314;49.248;6.968;2024-02-15T00:36:32;12.90;99.90
27978;DHT22;15314;49.248;6.968;2024-02-15T00:37:52;12.80;99.90
27978;DHT22;15314;49.248;6.968;2024-02-15T00:39:11;12.70;99.90
27978;DHT22;15314;49.248;6.968;2024-02-15T00:40:32;12.80;99.90
27978;DHT22;15314;49.248;6.968;2024-02-15T00:41:51;12.80;99.90
27978;DHT22;15314;49.248;6.968;2024-02-15T00:43:07;12.80;99.90
27978;DHT22;15314;49.248;6.968;2024-02-15T00:44:24;12.80;99.90
27978;DHT22;15314;49.248;6.968;2024-02-15T00:45:43;12.90;99.90
27978;DHT22;15314;49.248;6.968;2024-02-15T00:47:02;13.00;99.90
27978;DHT22;15314;49.248;6.968;2024-02-15T00:48:21;13.00;99.90
27978;DHT22;15314;49.248;6.968;2024-02-15T00:49:40;13.00;99.90
27978;DHT22;15314;49.248;6.968;2024-02-15T00:50:59;13.00;99.90
27978;DHT22;15314;49.248;6.968;2024-02-15T00:52:18;13.00;99.90
27978;DHT22;15314;49.248;6.968;2024-02-15T00:53:38;13.00;99.90
27978;DHT22;15314;49.248;6.968;2024-02-15T00:54:57;13.00;99.90
27978;DHT22;15314;49.248;6.968;2024-02-15T00:56:16;12.90;99.90
27978;DHT22;15314;49.248;6.968;2024-02-15T00:57:36;12.90;99.90
27978;DHT22;15314;49.248;6.968;2024-02-15T00:58:55;12.80;99.90
27978;DHT22;15314;49.248;6.968;2024-02-15T01:00:15;12.80;99.90
27978;DHT22;15314;49.248;6.968;2024-02-15T01:01:34;12.90;99.90
27978;DHT22;15314;49.248;6.968;2024-02-15T01:02:55;12.80;99.90
27978;DHT22;15314;49.248;6.968;2024-02-15T01:04:15;12.80;99.90
27978;DHT22;15314;49.248;6.968;2024-02-15T01:05:34;12.70;99.90
27978;DHT22;15314;49.248;6.968;2024-02-15T01:06:53;12.80;99.90
27978;DHT22;15314;49.248;6.968;2024-02-15T01:08:12;12.80;99.90
27978;DHT22;15314;49.248;6.968;2024-02-15T01:09:31;12.70;99.90
27978;DHT22;15314;49.248;6.968;2024-02-15T01:10:50;12.70;99.90
27978;DHT22;15314;49.248;6.968;2024-02-15T01:12:11;12.70;99.90
27978;DHT22;15314;49.248;6.968;2024-02-15T01:13:30;12.80;99.90
27978;DHT22;15314;49.248;6.968;2024-02-15T01:14:50;12.80;99.90
27978;DHT22;15314;49.248;6.968;2024-02-15T01:16:09;12.80;99.90
27978;DHT22;15314;49.248;6.968;2024-02-15T01:17:28;12.60;99.90
27978;DHT22;15314;49.248;6.968;2024-02-15T01:18:48;12.70;99.90
27978;DHT22;15314;49.248;6.968;2024-02-15T01:20:08;12.70;99.90
27978;DHT22;15314;49.248;6.968;2024-02-15T01:21:27;12.60;99.90
27978;DHT22;15314;49.248;6.968;2024-02-15T01:22:46;12.60;99.90
27978;DHT22;15314;49.248;6.968;2024-02-15T01:24:05;12.60;99.90
27978;DHT22;15314;49.248;6.968;2024-02-15T01:25:25;12.60;99.90
27978;DHT22;15314;49.248;6.968;2024-02-15T01:26:46;12.60;99.90
27978;DHT22;15314;49.248;6.968;2024-02-15T01:28:07;12.70;99.90
27978;DHT22;15314;49.248;6.968;2024-02-15T01:29:26;12.80;99.90
27978;DHT22;15314;49.248;6.968;2024-02-15T01:30:45;12.80;99.90
27978;DHT22;15314;49.248;6.968;2024-02-15T01:32:05;12.80;99.90
27978;DHT22;15314;49.248;6.968;2024-02-15T01:33:24;12.70;99.90
27978;DHT22;15314;49.248;6.968;2024-02-15T01:34:43;12.70;99.90
27978;DHT22;15314;49.248;6.968;2024-02-15T01:36:03;12.70;99.90
27978;DHT22;15314;49.248;6.968;2024-02-15T01:37:22;12.70;99.90
27978;DHT22;15314;49.248;6.968;2024-02-15T01:38:42;12.70;99.90
27978;DHT22;15314;49.248;6.968;2024-02-15T01:40:01;12.70;99.90
27978;DHT22;15314;49.248;6.968;2024-02-15T01:41:20;12.70;99.90
27978;DHT22;15314;49.248;6.968;2024-02-15T01:42:39;12.70;99.90
27978;DHT22;15314;49.248;6.968;2024-02-15T01:43:58;12.70;99.90
27978;DHT22;15314;49.248;6.968;2024-02-15T01:45:18;12.70;99.90
27978;DHT22;15314;49.248;6.968;2024-02-15T01:46:37;12.70;99.90
27978;DHT22;15314;49.248;6.968;2024-02-15T01:47:56;12.80;99.90
27978;DHT22;15314;49.248;6.968;2024-02-15T01:49:15;12.80;99.90
27978;DHT22;15314;49.248;6.968;2024-02-15T01:50:35;12.80;99.90
27978;DHT22;15314;49.248;6.968;2024-02-15T01:51:54;12.80;99.90
27978;DHT22;15314;49.248;6.968;2024-02-15T01:53:15;12.90;99.90
27978;DHT22;15314;49.248;6.968;2024-02-15T01:54:34;12.90;99.90
27978;DHT22;15314;49.248;6.968;2024-02-15T01:55:54;12.90;99.90
27978;DHT22;15314;49.248;6.968;2024-02-15T01:57:16;12.80;99.90
27978;DHT22;15314;49.248;6.968;2024-02-15T01:58:36;12.80;99.90
27978;DHT22;15314;49.248;6.968;2024-02-15T01:59:55;12.80;99.90
27978;DHT22;15314;49.248;6.968;2024-02-15T02:01:15;12.70;99.90
27978;DHT22;15314;49.248;6.968;2024-02-15T02:02:34;12.70;99.90
27978;DHT22;15314;49.248;6.968;2024-02-15T02:03:54;12.70;99.90
27978;DHT22;15314;49.248;6.968;2024-02-15T02:05:14;12.60;99.90
27978;DHT22;15314;49.248;6.968;2024-02-15T02:06:33;12.60;99.90
27978;DHT22;15314;49.248;6.968;2024-02-15T02:07:53;12.60;99.90
27978;DHT22;15314;49.248;6.968;2024-02-15T02:09:12;12.70;99.90
27978;DHT22;15314;49.248;6.968;2024-02-15T02:10:38;12.60;99.90
27978;DHT22;15314;49.248;6.968;2024-02-15T02:11:57;12.70;99.90
27978;DHT22;15314;49.248;6.968;2024-02-15T02:13:13;12.80;99.90
27978;DHT22;15314;49.248;6.968;2024-02-15T02:14:33;12.70;99.90
27978;DHT22;15314;49.248;6.968;2024-02-15T02:15:53;12.70;99.90
27978;DHT22;15314;49.248;6.968;2024-02-15T02:17:15;12.70;99.90
27978;DHT22;15314;49.248;6.968;2024-02-15T02:18:34;12.70;99.90
27978;DHT22;15314;49.248;6.968;2024-02-15T02:19:53;12.60;99.90
27978;DHT22;15314;49.248;6.968;2024-02-15T02:21:12;12.60;99.90
27978;DHT22;15314;49.248;6.968;2024-02-15T02:22:32;12.60;99.90
27978;DHT22;15314;49.248;6.968;2024-02-15T02:23:57;12.60;99.90
27978;DHT22;15314;49.248;6.968;2024-02-15T02:25:17;12.60;99.90
27978;DHT22;15314;49.248;6.968;2024-02-15T02:26:37;12.70;99.90
27978;DHT22;15314;49.248;6.968;2024-02-15T02:27:56;12.70;99.90
27978;DHT22;15314;49.248;6.968;2024-02-15T02:29:16;12.70;99.90
27978;DHT22;15314;49.248;6.968;2024-02-15T02:30:35;12.70;99.90
27978;DHT22;15314;49.248;6.968;2024-02-15T02:31:54;12.80;99.90
27978;DHT22;15314;49.248;6.968;2024-02-15T02:33:14;12.80;99.90
27978;DHT22;15314;49.248;6.968;2024-02-15T02:34:37;12.80;99.90
27978;DHT22;15314;49.248;6.968;2024-02-15T02:35:57;12.80;99.90
27978;DHT22;15314;49.248;6.968;2024-02-15T02:37:16;12.70;99.90
27978;DHT22;15314;49.248;6.968;2024-02-15T02:38:35;12.70;99.90
27978;DHT22;15314;49.248;6.968;2024-02-15T02:39:56;12.70;99.90
27978;DHT22;15314;49.248;6.968;2024-02-15T02:41:16;12.70;99.90
27978;DHT22;15314;49.248;6.968;2024-02-15T02:42:36;12.60;99.90
27978;DHT22;15314;49.248;6.968;2024-02-15T02:43:56;12.60;99.90
27978;DHT22;15314;49.248;6.968;2024-02-15T02:45:16;12.70;99.90
27978;DHT22;15314;49.248;6.968;2024-02-15T02:46:38;12.60;99.90
27978;DHT22;15314;49.248;6.968;2024-02-15T02:47:57;12.50;99.90
27978;DHT22;15314;49.248;6.968;2024-02-15T02:49:16;12.60;99.90
27978;DHT22;15314;49.248;6.968;2024-02-15T02:50:36;12.50;99.90
27978;DHT22;15314;49.248;6.968;2024-02-15T02:51:55;12.40;99.90
27978;DHT22;15314;49.248;6.968;2024-02-15T02:53:14;12.40;99.90
27978;DHT22;15314;49.248;6.968;2024-02-15T02:54:34;12.40;99.90
27978;DHT22;15314;49.248;6.968;2024-02-15T02:55:54;12.40;99.90
27978;DHT22;15314;49.248;6.968;2024-02-15T02:57:15;12.30;99.90
27978;DHT22;15314;49.248;6.968;2024-02-15T02:58:34;12.40;99.90
27978;DHT22;15314;49.248;6.968;2024-02-15T02:59:53;12.30;99.90
27978;DHT22;15314;49.248;6.968;2024-02-15T03:01:12;12.30;99.90
27978;DHT22;15314;49.248;6.968;2024-02-15T03:02:32;12.30;99.90
27978;DHT22;15314;49.248;6.968;2024-02-15T03:03:55;12.20;99.90
27978;DHT22;15314;49.248;6.968;2024-02-15T03:05:14;12.20;99.90
27978;DHT22;15314;49.248;6.968;2024-02-15T03:06:33;12.10;99.90
27978;DHT22;15314;49.248;6.968;2024-02-15T03:07:52;12.20;99.90
27978;DHT22;15314;49.248;6.968;2024-02-15T03:09:12;12.20;99.90
27978;DHT22;15314;49.248;6.968;2024-02-15T03:10:34;12.10;99.90
27978;DHT22;15314;49.248;6.968;2024-02-15T03:11:53;12.00;99.90
27978;DHT22;15314;49.248;6.968;2024-02-15T03:13:12;12.00;99.90
27978;DHT22;15314;49.248;6.968;2024-02-15T03:14:31;11.90;99.90
27978;DHT22;15314;49.248;6.968;2024-02-15T03:15:51;11.90;99.90
27978;DHT22;15314;49.248;6.968;2024-02-15T03:17:10;11.70;99.90
27978;DHT22;15314;49.248;6.968;2024-02-15T03:18:30;11.70;99.90
27978;DHT22;15314;49.248;6.968;2024-02-15T03:19:49;11.70;99.90
27978;DHT22;15314;49.248;6.968;2024-02-15T03:21:08;11.70;99.90
27978;DHT22;15314;49.248;6.968;2024-02-15T03:22:29;11.70;99.90
27978;DHT22;15314;49.248;6.968;2024-02-15T03:23:48;11.70;99.90
27978;DHT22;15314;49.248;6.968;2024-02-15T03:25:08;11.60;99.90
27978;DHT22;15314;49.248;6.968;2024-02-15T03:26:30;11.60;99.90
27978;DHT22;15314;49.248;6.968;2024-02-15T03:27:57;11.60;99.90
27978;DHT22;15314;49.248;6.968;2024-02-15T03:29:17;11.50;99.90
27978;DHT22;15314;49.248;6.968;2024-02-15T03:30:36;11.60;99.90
27978;DHT22;15314;49.248;6.968;2024-02-15T03:31:55;11.50;99.90
27978;DHT22;15314;49.248;6.968;2024-02-15T03:33:15;11.50;99.90
27978;DHT22;15314;49.248;6.968;2024-02-15T03:34:34;11.50;99.90
27978;DHT22;15314;49.248;6.968;2024-02-15T03:35:53;11.50;99.90
27978;DHT22;15314;49.248;6.968;2024-02-15T03:37:12;11.50;99.90
27978;DHT22;15314;49.248;6.968;2024-02-15T03:38:32;11.50;99.90
27978;DHT22;15314;49.248;6.968;2024-02-15T03:39:51;11.60;99.90
27978;DHT22;15314;49.248;6.968;2024-02-15T03:41:11;11.60;99.90
27978;DHT22;15314;49.248;6.968;2024-02-15T03:42:30;11.50;99.90
27978;DHT22;15314;49.248;6.968;2024-02-15T03:43:49;11.60;99.90
27978;DHT22;15314;49.248;6.968;2024-02-15T03:45:09;11.60;99.90
27978;DHT22;15314;49.248;6.968;2024-02-15T03:46:28;11.60;99.90
27978;DHT22;15314;49.248;6.968;2024-02-15T03:47:47;11.60;99.90
27978;DHT22;15314;49.248;6.968;2024-02-15T03:49:06;11.60;99.90
27978;DHT22;15314;49.248;6.968;2024-02-15T03:50:27;11.60;99.90
27978;DHT22;15314;49.248;6.968;2024-02-15T03:51:47;11.70;99.90
27978;DHT22;15314;49.248;6.968;2024-02-15T03:53:09;11.70;99.90
27978;DHT22;15314;49.248;6.968;2024-02-15T03:54:29;11.80;99.90
27978;DHT22;15314;49.248;6.968;2024-02-15T03:55:50;11.80;99.90
27978;DHT22;15314;49.248;6.968;2024-02-15T03:57:12;11.90;99.90
27978;DHT22;15314;49.248;6.968;2024-02-15T03:58:31;11.80;99.90
27978;DHT22;15314;49.248;6.968;2024-02-15T03:59:52;11.80;99.90
27978;DHT22;15314;49.248;6.968;2024-02-15T04:01:16;11.80;99.90
27978;DHT22;15314;49.248;6.968;2024-02-15T04:02:35;11.90;99.90
27978;DHT22;15314;49.248;6.968;2024-02-15T04:03:54;11.90;99.90
27978;DHT22;15314;49.248;6.968;2024-02-15T04:05:14;11.80;99.90
27978;DHT22;15314;49.248;6.968;2024-02-15T04:06:30;11.80;99.90
27978;DHT22;15314;49.248;6.968;2024-02-15T04:07:52;11.70;99.90
27978;DHT22;15314;49.248;6.968;2024-02-15T04:09:12;11.70;99.90
27978;DHT22;15314;49.248;6.968;2024-02-15T04:10:31;11.60;99.90
27978;DHT22;15314;49.248;6.968;2024-02-15T04:11:50;11.60;99.90
27978;DHT22;15314;49.248;6.968;2024-02-15T04:13:11;11.60;99.90
27978;DHT22;15314;49.248;6.968;2024-02-15T04:14:32;11.70;99.90
27978;DHT22;15314;49.248;6.968;2024-02-15T04:15:51;11.70;99.90
27978;DHT22;15314;49.248;6.968;2024-02-15T04:17:12;11.60;99.90
27978;DHT22;15314;49.248;6.968;2024-02-15T04:18:35;11.60;99.90
27978;DHT22;15314;49.248;6.968;2024-02-15T04:19:55;11.70;99.90
27978;DHT22;15314;49.248;6.968;2024-02-15T04:21:14;11.70;99.90
27978;DHT22;15314;49.248;6.968;2024-02-15T04:22:38;11.60;99.90
27978;DHT22;15314;49.248;6.968;2024-02-15T04:23:57;11.50;99.90
27978;DHT22;15314;49.248;6.968;2024-02-15T04:25:17;11.50;99.90
27978;DHT22;15314;49.248;6.968;2024-02-15T04:26:37;11.50;99.90
27978;DHT22;15314;49.248;6.968;2024-02-15T04:27:56;11.40;99.90
27978;DHT22;15314;49.248;6.968;2024-02-15T04:29:18;11.30;99.90
27978;DHT22;15314;49.248;6.968;2024-02-15T04:30:38;11.30;99.90
27978;DHT22;15314;49.248;6.968;2024-02-15T04:31:59;11.30;99.90
27978;DHT22;15314;49.248;6.968;2024-02-15T04:33:19;11.20;99.90
27978;DHT22;15314;49.248;6.968;2024-02-15T04:34:41;11.30;99.90
27978;DHT22;15314;49.248;6.968;2024-02-15T04:36:00;11.20;99.90
27978;DHT22;15314;49.248;6.968;2024-02-15T04:37:23;11.20;99.90
27978;DHT22;15314;49.248;6.968;2024-02-15T04:38:42;11.10;99.90
27978;DHT22;15314;49.248;6.968;2024-02-15T04:40:03;11.00;99.90
27978;DHT22;15314;49.248;6.968;2024-02-15T04:41:29;11.00;99.90
27978;DHT22;15314;49.248;6.968;2024-02-15T04:42:48;11.00;99.90
27978;DHT22;15314;49.248;6.968;2024-02-15T04:44:07;11.10;99.90
27978;DHT22;15314;49.248;6.968;2024-02-15T04:45:30;11.00;99.90
27978;DHT22;15314;49.248;6.968;2024-02-15T04:46:49;11.00;99.90
27978;DHT22;15314;49.248;6.968;2024-02-15T04:48:08;11.00;99.90
27978;DHT22;15314;49.248;6.968;2024-02-15T04:49:28;10.90;99.90
27978;DHT22;15314;49.248;6.968;2024-02-15T04:50:47;10.80;99.90
27978;DHT22;15314;49.248;6.968;2024-02-15T04:52:07;10.80;99.90
27978;DHT22;15314;49.248;6.968;2024-02-15T04:53:28;10.80;99.90
27978;DHT22;15314;49.248;6.968;2024-02-15T04:54:51;10.70;99.90
27978;DHT22;15314;49.248;6.968;2024-02-15T04:56:12;10.80;99.90
27978;DHT22;15314;49.248;6.968;2024-02-15T04:57:35;10.80;99.90
27978;DHT22;15314;49.248;6.968;2024-02-15T04:58:55;10.80;99.90
27978;DHT22;15314;49.248;6.968;2024-02-15T05:00:12;10.70;99.90
27978;DHT22;15314;49.248;6.968;2024-02-15T05:01:34;10.80;99.90
27978;DHT22;15314;49.248;6.968;2024-02-15T05:02:53;10.80;99.90
27978;DHT22;15314;49.248;6.968;2024-02-15T05:04:13;10.80;99.90
27978;DHT22;15314;49.248;6.968;2024-02-15T05:05:32;10.80;99.90
27978;DHT22;15314;49.248;6.968;2024-02-15T05:06:52;10.70;99.90
27978;DHT22;15314;49.248;6.968;2024-02-15T05:08:11;10.70;99.90
27978;DHT22;15314;49.248;6.968;2024-02-15T05:09:31;10.70;99.90
27978;DHT22;15314;49.248;6.968;2024-02-15T05:10:50;10.80;99.90
27978;DHT22;15314;49.248;6.968;2024-02-15T05:12:24;10.80;99.90
27978;DHT22;15314;49.248;6.968;2024-02-15T05:13:46;10.80;99.90
27978;DHT22;15314;49.248;6.968;2024-02-15T05:15:05;10.70;99.90
27978;DHT22;15314;49.248;6.968;2024-02-15T05:16:31;10.70;99.90
27978;DHT22;15314;49.248;6.968;2024-02-15T05:17:50;10.70;99.90
27978;DHT22;15314;49.248;6.968;2024-02-15T05:19:09;10.80;99.90
27978;DHT22;15314;49.248;6.968;2024-02-15T05:20:32;10.80;99.90
27978;DHT22;15314;49.248;6.968;2024-02-15T05:21:51;10.80;99.90
27978;DHT22;15314;49.248;6.968;2024-02-15T05:23:10;10.80;99.90
27978;DHT22;15314;49.248;6.968;2024-02-15T05:24:31;10.90;99.90
27978;DHT22;15314;49.248;6.968;2024-02-15T05:25:50;10.90;99.90
27978;DHT22;15314;49.248;6.968;2024-02-15T05:27:09;10.90;99.90
27978;DHT22;15314;49.248;6.968;2024-02-15T05:28:29;11.00;99.90
27978;DHT22;15314;49.248;6.968;2024-02-15T05:29:49;11.00;99.90
27978;DHT22;15314;49.248;6.968;2024-02-15T05:31:11;11.00;99.90
27978;DHT22;15314;49.248;6.968;2024-02-15T05:32:31;11.10;99.90
27978;DHT22;15314;49.248;6.968;2024-02-15T05:33:50;11.10;99.90
27978;DHT22;15314;49.248;6.968;2024-02-15T05:35:10;11.10;99.90
27978;DHT22;15314;49.248;6.968;2024-02-15T05:36:33;11.20;99.90
27978;DHT22;15314;49.248;6.968;2024-02-15T05:37:53;11.20;99.90
27978;DHT22;15314;49.248;6.968;2024-02-15T05:39:12;11.10;99.90
27978;DHT22;15314;49.248;6.968;2024-02-15T05:40:33;11.10;99.90
27978;DHT22;15314;49.248;6.968;2024-02-15T05:41:52;11.10;99.90
27978;DHT22;15314;49.248;6.968;2024-02-15T05:43:12;11.20;99.90
27978;DHT22;15314;49.248;6.968;2024-02-15T05:44:32;11.20;99.90
27978;DHT22;15314;49.248;6.968;2024-02-15T05:45:53;11.30;99.90
27978;DHT22;15314;49.248;6.968;2024-02-15T05:47:12;11.30;99.90
27978;DHT22;15314;49.248;6.968;2024-02-15T05:48:32;11.40;99.90
27978;DHT22;15314;49.248;6.968;2024-02-15T05:49:54;11.40;99.90
27978;DHT22;15314;49.248;6.968;2024-02-15T05:51:13;11.30;99.90
27978;DHT22;15314;49.248;6.968;2024-02-15T05:52:32;11.30;99.90
27978;DHT22;15314;49.248;6.968;2024-02-15T05:53:51;11.20;99.90
27978;DHT22;15314;49.248;6.968;2024-02-15T05:55:14;11.20;99.90
27978;DHT22;15314;49.248;6.968;2024-02-15T05:56:36;11.10;99.90
27978;DHT22;15314;49.248;6.968;2024-02-15T05:57:55;11.10;99.90
27978;DHT22;15314;49.248;6.968;2024-02-15T05:59:14;11.00;99.90
27978;DHT22;15314;49.248;6.968;2024-02-15T06:00:35;10.90;99.90
27978;DHT22;15314;49.248;6.968;2024-02-15T06:01:54;11.00;99.90
27978;DHT22;15314;49.248;6.968;2024-02-15T06:03:13;11.00;99.90
27978;DHT22;15314;49.248;6.968;2024-02-15T06:04:32;11.00;99.90
27978;DHT22;15314;49.248;6.968;2024-02-15T06:05:52;11.10;99.90
27978;DHT22;15314;49.248;6.968;2024-02-15T06:07:16;11.10;99.90
27978;DHT22;15314;49.248;6.968;2024-02-15T06:08:37;11.10;99.90
27978;DHT22;15314;49.248;6.968;2024-02-15T06:09:59;11.10;99.90
27978;DHT22;15314;49.248;6.968;2024-02-15T06:11:22;11.10;99.90
27978;DHT22;15314;49.248;6.968;2024-02-15T06:12:41;11.20;99.90
27978;DHT22;15314;49.248;6.968;2024-02-15T06:14:01;11.20;99.90
27978;DHT22;15314;49.248;6.968;2024-02-15T06:15:20;11.30;99.90
27978;DHT22;15314;49.248;6.968;2024-02-15T06:16:43;11.30;99.90
27978;DHT22;15314;49.248;6.968;2024-02-15T06:18:02;11.30;99.90
27978;DHT22;15314;49.248;6.968;2024-02-15T06:19:28;11.40;99.90
27978;DHT22;15314;49.248;6.968;2024-02-15T06:20:47;11.40;99.90
27978;DHT22;15314;49.248;6.968;2024-02-15T06:22:08;11.40;99.90
27978;DHT22;15314;49.248;6.968;2024-02-15T06:23:28;11.30;99.90
27978;DHT22;15314;49.248;6.968;2024-02-15T06:24:47;11.30;99.90
27978;DHT22;15314;49.248;6.968;2024-02-15T06:26:06;11.40;99.90
27978;DHT22;15314;49.248;6.968;2024-02-15T06:27:26;11.30;99.90
27978;DHT22;15314;49.248;6.968;2024-02-15T06:28:45;11.40;99.90
27978;DHT22;15314;49.248;6.968;2024-02-15T06:30:23;11.40;99.90
27978;DHT22;15314;49.248;6.968;2024-02-15T06:32:01;11.30;99.90
27978;DHT22;15314;49.248;6.968;2024-02-15T06:33:39;11.40;99.90
27978;DHT22;15314;49.248;6.968;2024-02-15T06:35:19;11.40;99.90
27978;DHT22;15314;49.248;6.968;2024-02-15T06:36:59;11.50;99.90
27978;DHT22;15314;49.248;6.968;2024-02-15T06:38:37;11.50;99.90
27978;DHT22;15314;49.248;6.968;2024-02-15T06:40:15;11.60;99.90
27978;DHT22;15314;49.248;6.968;2024-02-15T06:41:36;11.60;99.90
27978;DHT22;15314;49.248;6.968;2024-02-15T06:42:55;11.60;99.90
27978;DHT22;15314;49.248;6.968;2024-02-15T06:44:14;11.60;99.90
27978;DHT22;15314;49.248;6.968;2024-02-15T06:45:33;11.80;99.90
27978;DHT22;15314;49.248;6.968;2024-02-15T06:46:54;11.70;99.90
27978;DHT22;15314;49.248;6.968;2024-02-15T06:48:13;11.70;99.90
27978;DHT22;15314;49.248;6.968;2024-02-15T06:49:32;11.80;99.90
27978;DHT22;15314;49.248;6.968;2024-02-15T06:50:55;11.70;99.90
27978;DHT22;15314;49.248;6.968;2024-02-15T06:52:14;11.70;99.90
27978;DHT22;15314;49.248;6.968;2024-02-15T06:53:35;11.80;99.90
27978;DHT22;15314;49.248;6.968;2024-02-15T06:54:54;11.80;99.90
27978;DHT22;15314;49.248;6.968;2024-02-15T06:56:13;11.80;99.90
27978;DHT22;15314;49.248;6.968;2024-02-15T06:57:33;11.90;99.90
27978;DHT22;15314;49.248;6.968;2024-02-15T06:58:52;11.80;99.90
27978;DHT22;15314;49.248;6.968;2024-02-15T07:00:13;11.80;99.90
27978;DHT22;15314;49.248;6.968;2024-02-15T07:01:34;11.70;99.90
27978;DHT22;15314;49.248;6.968;2024-02-15T07:02:53;11.70;99.90
27978;DHT22;15314;49.248;6.968;2024-02-15T07:04:12;11.80;99.90
27978;DHT22;15314;49.248;6.968;2024-02-15T07:05:31;11.80;99.90
27978;DHT22;15314;49.248;6.968;2024-02-15T07:06:51;11.80;99.90
27978;DHT22;15314;49.248;6.968;2024-02-15T07:08:11;11.90;99.90
27978;DHT22;15314;49.248;6.968;2024-02-15T07:09:31;12.00;99.90
27978;DHT22;15314;49.248;6.968;2024-02-15T07:10:51;12.00;99.90
27978;DHT22;15314;49.248;6.968;2024-02-15T07:12:11;12.10;99.90
27978;DHT22;15314;49.248;6.968;2024-02-15T07:13:30;12.20;99.90
27978;DHT22;15314;49.248;6.968;2024-02-15T07:14:49;12.20;99.90
27978;DHT22;15314;49.248;6.968;2024-02-15T07:16:09;12.20;99.90
27978;DHT22;15314;49.248;6.968;2024-02-15T07:17:28;12.30;99.90
27978;DHT22;15314;49.248;6.968;2024-02-15T07:18:48;12.30;99.90
27978;DHT22;15314;49.248;6.968;2024-02-15T07:20:09;12.30;99.90
27978;DHT22;15314;49.248;6.968;2024-02-15T07:21:29;12.30;99.90
27978;DHT22;15314;49.248;6.968;2024-02-15T07:22:48;12.40;99.90
27978;DHT22;15314;49.248;6.968;2024-02-15T07:24:08;12.50;99.90
27978;DHT22;15314;49.248;6.968;2024-02-15T07:25:28;12.50;99.90
27978;DHT22;15314;49.248;6.968;2024-02-15T07:26:47;12.70;99.90
27978;DHT22;15314;49.248;6.968;2024-02-15T07:28:06;12.70;99.90
27978;DHT22;15314;49.248;6.968;2024-02-15T07:29:27;12.90;99.90
27978;DHT22;15314;49.248;6.968;2024-02-15T07:30:46;13.00;99.90
27978;DHT22;15314;49.248;6.968;2024-02-15T07:32:07;13.40;99.90
27978;DHT22;15314;49.248;6.968;2024-02-15T07:33:27;13.70;99.90
27978;DHT22;15314;49.248;6.968;2024-02-15T07:34:47;13.90;99.90
27978;DHT22;15314;49.248;6.968;2024-02-15T07:36:07;13.90;99.90
27978;DHT22;15314;49.248;6.968;2024-02-15T07:37:26;13.90;99.90
27978;DHT22;15314;49.248;6.968;2024-02-15T07:38:45;13.80;99.90
27978;DHT22;15314;49.248;6.968;2024-02-15T07:40:04;13.70;99.90
27978;DHT22;15314;49.248;6.968;2024-02-15T07:41:26;13.70;99.90
27978;DHT22;15314;49.248;6.968;2024-02-15T07:42:46;13.80;99.90
27978;DHT22;15314;49.248;6.968;2024-02-15T07:44:06;13.90;99.90
27978;DHT22;15314;49.248;6.968;2024-02-15T07:45:25;14.00;99.90
27978;DHT22;15314;49.248;6.968;2024-02-15T07:46:45;14.00;99.90
27978;DHT22;15314;49.248;6.968;2024-02-15T07:48:05;14.10;99.90
27978;DHT22;15314;49.248;6.968;2024-02-15T07:49:24;14.10;99.90
27978;DHT22;15314;49.248;6.968;2024-02-15T07:50:43;14.30;99.90
27978;DHT22;15314;49.248;6.968;2024-02-15T07:52:03;14.30;99.90
27978;DHT22;15314;49.248;6.968;2024-02-15T07:53:23;14.40;99.90
27978;DHT22;15314;49.248;6.968;2024-02-15T07:54:43;14.50;99.90
27978;DHT22;15314;49.248;6.968;2024-02-15T07:56:03;14.30;99.90
27978;DHT22;15314;49.248;6.968;2024-02-15T07:57:22;14.10;99.90
27978;DHT22;15314;49.248;6.968;2024-02-15T07:58:42;13.90;99.90
27978;DHT22;15314;49.248;6.968;2024-02-15T08:00:01;13.90;99.90
27978;DHT22;15314;49.248;6.968;2024-02-15T08:01:22;13.80;99.90
27978;DHT22;15314;49.248;6.968;2024-02-15T08:02:41;13.70;99.90
27978;DHT22;15314;49.248;6.968;2024-02-15T08:04:01;13.70;99.90
27978;DHT22;15314;49.248;6.968;2024-02-15T08:05:21;13.60;99.90
27978;DHT22;15314;49.248;6.968;2024-02-15T08:06:40;13.40;99.90
27978;DHT22;15314;49.248;6.968;2024-02-15T08:08:00;13.40;99.90
27978;DHT22;15314;49.248;6.968;2024-02-15T08:09:19;13.40;99.90
27978;DHT22;15314;49.248;6.968;2024-02-15T08:10:40;13.50;99.90
27978;DHT22;15314;49.248;6.968;2024-02-15T08:12:01;13.50;99.90
27978;DHT22;15314;49.248;6.968;2024-02-15T08:13:21;13.70;99.90
27978;DHT22;15314;49.248;6.968;2024-02-15T08:14:47;13.90;99.90
27978;DHT22;15314;49.248;6.968;2024-02-15T08:16:03;14.00;99.90
27978;DHT22;15314;49.248;6.968;2024-02-15T08:17:24;14.00;99.90
27978;DHT22;15314;49.248;6.968;2024-02-15T08:18:45;14.20;99.90
27978;DHT22;15314;49.248;6.968;2024-02-15T08:20:09;14.30;99.90
27978;DHT22;15314;49.248;6.968;2024-02-15T08:21:29;14.40;99.90
27978;DHT22;15314;49.248;6.968;2024-02-15T08:22:49;14.50;99.90
27978;DHT22;15314;49.248;6.968;2024-02-15T08:24:09;14.60;99.90
27978;DHT22;15314;49.248;6.968;2024-02-15T08:25:28;14.80;99.90
27978;DHT22;15314;49.248;6.968;2024-02-15T08:26:47;14.80;99.90